createdAt,value
2018-10-17T01:55:55.434Z,15.50
2018-10-17T05:56:49.477Z,21.00
2018-10-17T06:06:09.225Z,22.90
2018-10-17T07:15:04.342Z,20.10
2018-10-17T07:17:35.172Z,19.90
2018-10-17T07:20:08.517Z,22.10
2018-10-17T07:22:42.497Z,27.20
2018-10-17T07:25:18.111Z,23.70
2018-10-17T07:27:54.229Z,24.37
2018-10-17T07:30:37.847Z,23.50
2018-10-17T07:33:09.889Z,25.43
2018-10-17T07:35:47.279Z,22.93
2018-10-17T07:38:21.074Z,25.07
2018-10-17T07:42:35.089Z,23.90
2018-10-17T07:45:22.391Z,23.57
2018-10-17T08:00:34.432Z,23.20
2018-10-17T08:27:41.121Z,20.70
2018-10-17T08:30:42.716Z,25.87
2018-10-17T08:33:33.212Z,23.70
2018-10-17T08:39:44.750Z,22.57
2018-10-17T08:42:52.017Z,24.70
2018-10-17T08:45:57.530Z,23.07
2018-10-17T08:48:48.525Z,24.70
2018-10-17T08:55:14.098Z,25.40
2018-10-17T09:01:35.440Z,23.87
2018-10-17T09:18:33.856Z,22.73
2018-10-17T09:21:39.846Z,22.87
2018-10-17T09:24:31.829Z,22.47
2018-10-17T09:33:15.506Z,21.33
2018-10-17T09:50:12.403Z,21.90
2018-10-17T09:57:24.244Z,22.87
2018-10-17T10:01:12.871Z,22.90
2018-10-17T10:13:00.486Z,20.83
2018-10-17T10:24:12.957Z,20.47
2018-10-17T10:31:41.243Z,20.93
2018-10-17T10:34:28.710Z,20.47
2018-10-17T11:49:39.375Z,20.30
2018-10-17T11:52:14.155Z,21.00
2018-10-17T11:54:48.940Z,18.63
2018-10-17T11:57:22.273Z,19.77
2018-10-17T11:59:58.141Z,18.20
2018-10-17T12:02:32.213Z,19.70
2018-10-17T12:05:09.569Z,19.00
2018-10-17T12:07:44.649Z,18.70
2018-10-17T12:10:25.929Z,18.13
2018-10-17T12:13:01.489Z,18.40
2018-10-17T12:15:35.106Z,17.13
2018-10-17T12:18:10.386Z,18.03
2018-10-17T12:20:43.639Z,17.43
2018-10-17T12:23:18.299Z,17.73
2018-10-17T12:28:45.445Z,17.53
2018-10-17T12:31:17.808Z,17.80
2018-10-17T12:33:49.381Z,17.63
2018-10-17T12:36:21.586Z,17.50
2018-10-17T12:38:52.633Z,16.90
2018-10-17T12:41:24.031Z,17.50
2018-10-17T12:43:57.981Z,18.17
2018-10-17T12:46:29.847Z,17.67
2018-10-17T12:49:01.576Z,17.47
2018-10-17T12:51:37.652Z,17.30
2018-10-17T12:54:08.935Z,17.93
2018-10-17T12:56:40.848Z,18.07
2018-10-17T12:59:18.879Z,16.80
2018-10-17T13:01:53.646Z,17.33
2018-10-17T13:04:26.605Z,18.33
2018-10-17T13:06:57.321Z,17.90
2018-10-17T13:09:31.030Z,16.67
2018-10-17T13:12:03.892Z,16.60
2018-10-17T13:14:35.936Z,17.73
2018-10-17T13:17:07.153Z,17.90
2018-10-17T13:19:48.274Z,18.33
2018-10-17T13:22:40.327Z,19.20
2018-10-17T13:25:10.583Z,19.03
2018-10-17T13:27:39.839Z,20.93
2018-10-17T13:30:09.286Z,20.60
2018-10-17T13:32:40.765Z,20.43
2018-10-17T13:35:11.387Z,20.30
2018-10-17T13:37:40.797Z,19.80
2018-10-17T13:40:10.498Z,19.90
2018-10-17T13:42:40.124Z,20.13
2018-10-17T13:45:09.927Z,20.13
2018-10-17T13:47:46.867Z,18.87
2018-10-17T13:50:19.168Z,20.20
2018-10-17T13:52:50.251Z,19.97
2018-10-17T13:55:26.807Z,17.50
2018-10-17T13:57:58.788Z,20.30
2018-10-17T14:00:28.350Z,20.70
2018-10-17T14:02:58.854Z,18.97
2018-10-17T16:29:03.626Z,17.73
2018-10-17T18:32:17.274Z,28.70
2018-10-17T18:34:56.367Z,25.80
2018-10-17T18:37:29.290Z,26.27
2018-10-17T18:40:12.422Z,24.70
2018-10-17T19:22:23.683Z,26.50
2018-10-17T19:25:04.679Z,30.07
2018-10-17T19:27:48.498Z,30.50
2018-10-17T19:30:22.778Z,30.32
2018-10-17T20:54:24.058Z,26.20
2018-10-17T20:57:01.652Z,28.57
2018-10-17T20:59:54.409Z,27.52
2018-10-17T21:02:23.258Z,29.20
2018-10-17T21:05:30.660Z,21.60
2018-10-17T21:08:13.886Z,29.00
2018-10-17T21:13:54.243Z,29.13
2018-10-17T21:16:24.322Z,29.07
2018-10-17T21:18:59.534Z,30.00
2018-10-17T21:21:33.090Z,29.57
2018-10-17T21:24:05.235Z,31.33
2018-10-17T21:26:42.750Z,30.37
2018-10-17T21:29:12.639Z,29.03
2018-10-17T21:56:41.696Z,25.67
2018-10-17T21:59:18.035Z,25.70
2018-10-17T22:02:04.487Z,27.50
2018-10-17T22:04:33.112Z,28.40
2018-10-17T22:07:14.226Z,29.53
2018-10-17T22:09:43.767Z,26.77
2018-10-17T22:15:09.684Z,28.87
2018-10-17T22:17:52.505Z,28.77
2018-10-17T22:23:03.648Z,29.13
2018-10-17T22:25:36.954Z,28.70
2018-10-17T22:28:18.054Z,29.87
2018-10-17T22:33:05.460Z,27.97
2018-10-17T22:35:34.050Z,28.77
2018-10-17T22:38:06.913Z,30.07
2018-10-17T22:40:37.837Z,32.87
2018-10-17T22:57:02.597Z,27.37
2018-10-17T22:59:38.357Z,28.60
2018-10-17T23:02:16.262Z,31.57
2018-10-17T23:04:45.215Z,30.80
2018-10-17T23:07:14.547Z,29.67
2018-10-17T23:09:43.378Z,31.13
2018-10-17T23:12:12.280Z,30.67
2018-10-17T23:14:40.794Z,31.07
2018-10-17T23:17:09.370Z,32.00
2018-10-17T23:19:38.344Z,31.83
2018-10-17T23:22:07.312Z,30.27
2018-10-17T23:24:44.096Z,31.43
2018-10-17T23:27:12.712Z,29.73
2018-10-17T23:29:42.672Z,30.07
2018-10-17T23:34:50.669Z,32.70
2018-10-17T23:37:19.265Z,30.13
2018-10-17T23:39:47.768Z,30.57
2018-10-17T23:44:55.619Z,27.20
2018-10-17T23:47:24.149Z,31.20
2018-10-17T23:49:53.149Z,30.97
2018-10-17T23:52:22.706Z,33.30
2018-10-17T23:54:55.221Z,30.90
2018-10-17T23:57:26.101Z,29.83
2018-10-17T23:59:55.253Z,31.70
